createdAt,value
2017-12-11T00:00:56.147Z,-0.16
2017-12-11T00:03:21.966Z,-0.22
2017-12-11T00:05:48.156Z,-0.27
2017-12-11T00:08:13.955Z,-0.30
2017-12-11T00:10:39.753Z,-0.19
2017-12-11T00:13:05.572Z,-0.21
2017-12-11T00:15:31.367Z,-0.19
2017-12-11T00:17:57.155Z,-0.16
2017-12-11T00:20:22.987Z,-0.18
2017-12-11T00:22:49.582Z,-0.12
2017-12-11T00:25:15.387Z,-0.10
2017-12-11T00:27:41.184Z,-0.07
2017-12-11T00:30:06.985Z,-0.18
2017-12-11T00:32:32.780Z,-0.21
2017-12-11T00:34:58.843Z,-0.26
2017-12-11T00:37:24.636Z,-0.26
2017-12-11T00:39:50.433Z,-0.28
2017-12-11T00:42:16.259Z,-0.24
2017-12-11T00:44:42.063Z,-0.26
2017-12-11T00:47:07.867Z,-0.16
2017-12-11T00:49:33.916Z,-0.29
2017-12-11T00:51:59.715Z,-0.08
2017-12-11T00:54:25.503Z,-0.14
2017-12-11T00:56:51.305Z,-0.17
2017-12-11T00:59:17.090Z,-0.17
2017-12-11T01:01:42.897Z,-0.16
2017-12-11T01:04:08.695Z,-0.19
2017-12-11T01:06:34.499Z,-0.25
2017-12-11T01:09:00.335Z,-0.20
2017-12-11T01:11:26.135Z,-0.20
2017-12-11T01:13:51.952Z,-0.09
2017-12-11T01:16:17.778Z,-0.16
2017-12-11T01:18:43.578Z,-0.17
2017-12-11T01:21:09.416Z,-0.03
2017-12-11T01:23:35.563Z,-0.01
2017-12-11T01:26:01.356Z,0.07
2017-12-11T01:28:27.135Z,0.14
2017-12-11T01:30:52.983Z,0.07
2017-12-11T01:33:18.791Z,0.09
2017-12-11T01:35:44.581Z,-0.03
2017-12-11T01:38:10.488Z,0.04
2017-12-11T01:40:36.327Z,0.15
2017-12-11T01:43:02.152Z,0.15
2017-12-11T01:45:27.999Z,0.06
2017-12-11T01:47:53.814Z,0.14
2017-12-11T01:50:19.618Z,0.13
2017-12-11T01:52:45.432Z,0.18
2017-12-11T01:55:11.214Z,0.13
2017-12-11T01:57:37.011Z,0.25
2017-12-11T02:00:02.849Z,0.20
2017-12-11T02:02:28.652Z,0.13
2017-12-11T02:04:54.458Z,0.19
2017-12-11T02:07:20.243Z,0.32
2017-12-11T02:09:46.052Z,0.33
2017-12-11T02:12:11.884Z,0.19
2017-12-11T02:14:37.690Z,0.27
2017-12-11T02:17:03.503Z,0.15
2017-12-11T02:19:29.407Z,0.16
2017-12-11T02:21:55.205Z,0.28
2017-12-11T02:24:21.000Z,0.36
2017-12-11T02:26:46.846Z,0.33
2017-12-11T02:29:12.671Z,0.33
2017-12-11T02:31:38.499Z,0.36
2017-12-11T02:34:04.326Z,0.43
2017-12-11T02:36:30.129Z,0.36
2017-12-11T02:38:55.960Z,0.32
2017-12-11T02:41:21.772Z,0.39
2017-12-11T02:43:47.565Z,0.26
2017-12-11T02:46:13.350Z,0.30
2017-12-11T02:48:39.254Z,0.41
2017-12-11T02:51:05.060Z,0.33
2017-12-11T02:53:30.881Z,0.33
2017-12-11T02:55:56.672Z,0.34
2017-12-11T02:58:22.459Z,0.38
2017-12-11T03:00:48.274Z,0.20
2017-12-11T03:03:14.066Z,0.18
2017-12-11T03:05:39.841Z,0.15
2017-12-11T03:08:05.700Z,0.14
2017-12-11T03:10:31.478Z,0.05
2017-12-11T03:12:57.276Z,0.06
2017-12-11T03:15:23.086Z,0.08
2017-12-11T03:17:48.959Z,0.08
2017-12-11T03:20:14.747Z,0.04
2017-12-11T03:22:40.542Z,0.22
2017-12-11T03:25:06.339Z,0.11
2017-12-11T03:27:32.446Z,0.09
2017-12-11T03:29:58.243Z,0.22
2017-12-11T03:32:24.037Z,0.14
2017-12-11T03:34:49.840Z,0.27
2017-12-11T03:37:15.612Z,0.25
2017-12-11T03:39:41.402Z,0.25
2017-12-11T03:42:07.215Z,0.21
2017-12-11T03:44:33.003Z,0.32
2017-12-11T03:46:58.788Z,0.34
2017-12-11T03:49:24.695Z,0.58
2017-12-11T03:51:50.479Z,0.57
2017-12-11T03:54:16.267Z,0.61
2017-12-11T03:56:42.057Z,0.66
2017-12-11T03:59:07.902Z,0.36
2017-12-11T04:01:33.987Z,0.25
2017-12-11T04:03:59.759Z,0.30
2017-12-11T04:06:25.552Z,0.23
2017-12-11T04:08:51.395Z,0.37
2017-12-11T04:11:17.166Z,0.45
2017-12-11T04:13:42.955Z,0.34
2017-12-11T04:16:09.076Z,0.46
2017-12-11T04:18:34.855Z,0.36
2017-12-11T04:21:00.618Z,0.36
2017-12-11T04:23:26.410Z,0.38
2017-12-11T04:25:52.193Z,0.31
2017-12-11T04:28:17.984Z,0.40
2017-12-11T04:30:43.871Z,0.46
2017-12-11T04:33:09.654Z,0.43
2017-12-11T04:35:35.447Z,0.35
2017-12-11T04:38:01.232Z,0.48
2017-12-11T04:40:27.014Z,0.41
2017-12-11T04:42:52.799Z,0.48
2017-12-11T04:45:18.595Z,0.43
2017-12-11T04:47:44.375Z,0.47
2017-12-11T04:50:10.155Z,0.43
2017-12-11T04:52:35.921Z,0.40
2017-12-11T04:55:01.691Z,0.45
2017-12-11T04:57:27.778Z,0.29
2017-12-11T04:59:53.717Z,0.36
2017-12-11T05:02:20.287Z,0.52
2017-12-11T05:04:46.953Z,0.46
2017-12-11T05:07:13.568Z,1.25
2017-12-11T05:09:39.533Z,1.58
2017-12-11T05:12:06.153Z,1.81
2017-12-11T05:14:32.767Z,2.19
2017-12-11T05:16:59.395Z,2.41
2017-12-11T05:19:25.226Z,3.56
2017-12-11T05:21:51.775Z,2.76
2017-12-11T05:24:17.804Z,2.21
2017-12-11T05:26:43.583Z,1.87
2017-12-11T05:29:09.387Z,2.85
2017-12-11T05:31:35.203Z,2.89
2017-12-11T05:34:01.000Z,2.07
2017-12-11T05:36:26.765Z,1.64
2017-12-11T05:38:52.576Z,1.37
2017-12-11T05:41:18.371Z,1.35
2017-12-11T05:43:44.150Z,1.30
2017-12-11T05:46:09.988Z,0.90
2017-12-11T05:48:35.779Z,1.34
2017-12-11T05:51:01.555Z,1.46
2017-12-11T05:53:27.463Z,1.39
2017-12-11T05:55:53.246Z,1.21
2017-12-11T05:58:19.031Z,0.87
2017-12-11T06:00:44.819Z,1.34
2017-12-11T06:03:10.610Z,1.13
2017-12-11T06:05:36.403Z,1.03
2017-12-11T06:08:02.205Z,0.85
2017-12-11T06:10:28.002Z,0.80
2017-12-11T06:12:53.794Z,0.93
2017-12-11T06:15:19.591Z,0.69
2017-12-11T06:17:45.375Z,0.63
2017-12-11T06:20:11.153Z,0.81
2017-12-11T06:22:36.954Z,0.80
2017-12-11T06:25:02.772Z,0.78
2017-12-11T06:27:28.558Z,0.77
2017-12-11T06:29:54.697Z,0.82
2017-12-11T06:32:20.472Z,0.90
2017-12-11T06:34:46.251Z,0.80
2017-12-11T06:37:12.043Z,0.95
2017-12-11T06:39:37.815Z,0.91
2017-12-11T06:42:03.611Z,0.99
2017-12-11T06:44:29.423Z,1.10
2017-12-11T06:46:55.186Z,1.50
2017-12-11T06:49:21.009Z,1.28
2017-12-11T06:51:47.830Z,1.50
2017-12-11T06:54:13.608Z,1.58
2017-12-11T06:56:39.386Z,1.90
2017-12-11T06:59:05.168Z,1.96
2017-12-11T07:01:30.947Z,1.68
2017-12-11T07:03:56.710Z,1.52
2017-12-11T07:06:22.802Z,1.33
2017-12-11T07:08:48.582Z,1.40
2017-12-11T07:11:14.366Z,1.63
2017-12-11T07:13:40.157Z,1.57
2017-12-11T07:16:05.935Z,1.51
2017-12-11T07:18:31.712Z,2.14
2017-12-11T07:20:57.507Z,2.22
2017-12-11T07:23:23.287Z,2.31
2017-12-11T07:25:49.070Z,2.15
2017-12-11T07:28:14.895Z,2.46
2017-12-11T07:30:40.683Z,2.49
2017-12-11T07:33:06.459Z,2.55
2017-12-11T07:35:32.336Z,2.39
2017-12-11T07:37:58.118Z,2.44
2017-12-11T07:40:23.918Z,2.47
2017-12-11T07:42:49.867Z,2.35
2017-12-11T07:45:15.685Z,2.09
2017-12-11T07:47:41.463Z,2.16
2017-12-11T07:50:07.271Z,2.36
2017-12-11T07:52:33.047Z,2.01
2017-12-11T07:54:59.106Z,1.45
2017-12-11T07:57:24.891Z,1.44
2017-12-11T07:59:50.661Z,1.64
2017-12-11T08:02:16.487Z,1.55
2017-12-11T08:04:42.318Z,2.29
2017-12-11T08:07:08.115Z,2.24
2017-12-11T08:09:33.891Z,1.97
2017-12-11T08:11:59.669Z,1.58
2017-12-11T08:14:25.456Z,1.41
2017-12-11T08:16:51.232Z,1.32
2017-12-11T08:19:17.010Z,1.97
2017-12-11T08:21:42.816Z,2.30
2017-12-11T08:24:08.602Z,2.11
2017-12-11T08:26:34.380Z,1.78
2017-12-11T08:29:00.454Z,2.55
2017-12-11T08:31:26.274Z,2.65
2017-12-11T08:33:52.056Z,2.54
2017-12-11T08:36:17.861Z,2.26
2017-12-11T08:38:43.630Z,2.97
2017-12-11T08:41:09.410Z,2.96
2017-12-11T08:43:35.207Z,1.99
2017-12-11T08:46:00.984Z,2.04
2017-12-11T08:48:26.759Z,2.12
2017-12-11T08:50:53.652Z,2.29
2017-12-11T08:53:19.475Z,2.88
2017-12-11T08:55:45.251Z,2.66
2017-12-11T08:58:11.363Z,2.19
2017-12-11T09:00:37.259Z,1.82
2017-12-11T09:03:03.051Z,1.49
2017-12-11T09:05:29.010Z,1.48
2017-12-11T09:07:54.798Z,1.31
2017-12-11T09:10:22.029Z,1.21
2017-12-11T09:12:50.272Z,1.27
2017-12-11T09:15:16.058Z,1.18
2017-12-11T09:17:42.833Z,1.53
2017-12-11T09:20:08.826Z,1.64
2017-12-11T09:22:34.630Z,1.55
2017-12-11T09:25:00.639Z,1.49
2017-12-11T09:27:26.692Z,1.40
2017-12-11T09:29:52.495Z,1.29
2017-12-11T09:32:18.299Z,1.29
2017-12-11T09:34:44.406Z,1.23
2017-12-11T09:37:12.486Z,1.33
2017-12-11T09:39:38.292Z,1.45
2017-12-11T09:42:05.091Z,1.47
2017-12-11T09:44:30.911Z,2.52
2017-12-11T09:46:56.723Z,2.40
2017-12-11T09:49:22.531Z,1.90
2017-12-11T09:51:50.915Z,1.88
2017-12-11T09:54:17.858Z,2.55
2017-12-11T09:56:44.903Z,2.43
2017-12-11T09:59:11.361Z,2.70
2017-12-11T10:01:37.391Z,2.76
2017-12-11T10:04:03.971Z,2.48
2017-12-11T10:06:29.872Z,2.30
2017-12-11T10:08:55.961Z,2.54
2017-12-11T10:11:22.197Z,2.75
2017-12-11T10:13:48.008Z,2.42
2017-12-11T10:16:14.813Z,2.05
2017-12-11T10:18:40.669Z,2.74
2017-12-11T10:21:07.187Z,2.13
2017-12-11T10:23:34.303Z,2.26
2017-12-11T10:26:00.084Z,1.90
2017-12-11T10:28:26.538Z,2.74
2017-12-11T10:30:52.416Z,2.54
2017-12-11T10:33:18.276Z,2.16
2017-12-11T10:35:45.540Z,2.63
2017-12-11T10:38:11.398Z,2.51
2017-12-11T10:40:37.503Z,2.41
2017-12-11T10:43:03.378Z,1.93
2017-12-11T10:45:29.682Z,2.43
2017-12-11T10:47:55.629Z,2.87
2017-12-11T10:50:21.448Z,2.94
2017-12-11T10:52:47.845Z,2.34
2017-12-11T10:55:14.923Z,2.16
2017-12-11T10:57:45.048Z,2.63
2017-12-11T11:00:11.346Z,2.94
2017-12-11T11:02:37.296Z,3.16
2017-12-11T11:05:04.593Z,3.47
2017-12-11T11:07:30.627Z,2.92
2017-12-11T11:09:57.415Z,3.01
2017-12-11T11:12:23.220Z,2.86
2017-12-11T11:14:48.999Z,3.20
2017-12-11T11:17:15.482Z,2.93
2017-12-11T11:19:41.295Z,2.97
2017-12-11T11:22:07.089Z,2.55
2017-12-11T11:24:32.903Z,2.14
2017-12-11T11:26:59.542Z,3.32
2017-12-11T11:29:25.363Z,3.67
2017-12-11T11:31:51.162Z,3.08
2017-12-11T11:34:17.333Z,2.87
2017-12-11T11:36:43.630Z,2.97
2017-12-11T11:39:09.410Z,3.16
2017-12-11T11:41:35.206Z,3.30
2017-12-11T11:44:00.996Z,3.50
2017-12-11T11:46:26.928Z,3.73
2017-12-11T11:48:53.281Z,3.07
2017-12-11T11:51:19.070Z,3.52
2017-12-11T11:53:44.899Z,3.49
2017-12-11T11:56:10.709Z,3.32
2017-12-11T11:58:36.611Z,3.63
2017-12-11T12:01:02.430Z,4.04
2017-12-11T12:03:28.236Z,4.02
2017-12-11T12:05:54.035Z,3.38
2017-12-11T12:08:20.158Z,3.68
2017-12-11T12:10:47.599Z,3.04
2017-12-11T12:13:14.727Z,3.48
2017-12-11T12:15:40.519Z,3.70
2017-12-11T12:18:06.986Z,3.57
2017-12-11T12:20:32.882Z,4.04
2017-12-11T12:22:59.450Z,3.67
2017-12-11T12:25:25.506Z,3.31
2017-12-11T12:27:52.576Z,3.17
2017-12-11T12:30:18.748Z,2.93
2017-12-11T12:32:45.302Z,3.19
2017-12-11T12:35:12.079Z,3.51
2017-12-11T12:37:37.883Z,3.37
2017-12-11T12:40:05.590Z,3.21
2017-12-11T12:42:31.596Z,2.97
2017-12-11T12:44:57.443Z,2.84
2017-12-11T12:47:23.262Z,3.05
2017-12-11T12:49:49.087Z,3.44
2017-12-11T12:52:14.883Z,2.88
2017-12-11T12:54:40.687Z,2.90
2017-12-11T12:57:06.970Z,3.07
2017-12-11T12:59:32.750Z,2.89
2017-12-11T13:01:58.576Z,2.84
2017-12-11T13:04:25.198Z,3.35
2017-12-11T13:06:51.562Z,3.29
2017-12-11T13:09:17.362Z,3.00
2017-12-11T13:11:45.397Z,3.16
2017-12-11T13:14:11.231Z,3.19
2017-12-11T13:16:37.488Z,2.69
2017-12-11T13:19:03.261Z,2.71
2017-12-11T13:21:29.051Z,2.97
2017-12-11T13:23:54.863Z,3.14
2017-12-11T13:26:20.642Z,3.09
2017-12-11T13:28:46.418Z,2.71
2017-12-11T13:31:12.203Z,2.80
2017-12-11T13:33:37.991Z,2.84
2017-12-11T13:36:03.859Z,2.86
2017-12-11T13:38:29.643Z,3.01
2017-12-11T13:40:55.432Z,2.77
2017-12-11T13:43:21.263Z,3.00
2017-12-11T13:45:47.151Z,3.10
2017-12-11T13:48:12.922Z,3.01
2017-12-11T13:50:39.628Z,3.35
2017-12-11T13:53:05.407Z,3.48
2017-12-11T13:55:31.178Z,3.16
2017-12-11T13:57:56.971Z,3.19
2017-12-11T14:00:22.941Z,3.26
2017-12-11T14:02:49.728Z,2.76
2017-12-11T14:05:15.569Z,2.46
2017-12-11T14:07:41.342Z,2.29
2017-12-11T14:10:07.822Z,2.64
2017-12-11T14:12:34.197Z,2.61
2017-12-11T14:14:59.970Z,2.49
2017-12-11T14:17:25.749Z,2.49
2017-12-11T14:19:51.708Z,2.40
2017-12-11T14:22:17.486Z,2.60
2017-12-11T14:24:43.256Z,2.71
2017-12-11T14:27:09.046Z,2.69
2017-12-11T14:29:34.817Z,2.29
2017-12-11T14:32:00.640Z,2.31
2017-12-11T14:34:26.445Z,2.16
2017-12-11T14:36:52.239Z,2.18
2017-12-11T14:39:18.002Z,2.00
2017-12-11T14:41:43.775Z,2.05
2017-12-11T14:44:10.913Z,2.12
2017-12-11T14:46:37.329Z,1.92
2017-12-11T14:49:03.168Z,2.32
2017-12-11T14:51:30.023Z,2.20
2017-12-11T14:53:55.860Z,2.44
2017-12-11T14:56:22.810Z,2.55
2017-12-11T14:58:50.350Z,2.28
2017-12-11T15:01:17.166Z,2.18
2017-12-11T15:03:43.519Z,2.52
2017-12-11T15:06:10.062Z,2.48
2017-12-11T15:08:36.339Z,2.36
2017-12-11T15:11:02.172Z,2.35
2017-12-11T15:13:28.538Z,2.32
2017-12-11T15:15:55.808Z,2.26
2017-12-11T15:18:21.618Z,2.46
2017-12-11T15:20:47.453Z,2.36
2017-12-11T15:23:13.814Z,2.23
2017-12-11T15:25:39.650Z,2.25
2017-12-11T15:28:05.478Z,2.55
2017-12-11T15:30:31.277Z,2.45
2017-12-11T15:32:57.746Z,2.40
2017-12-11T15:35:23.553Z,2.40
2017-12-11T15:37:51.727Z,2.66
2017-12-11T15:40:20.706Z,2.43
2017-12-11T15:42:46.687Z,2.26
2017-12-11T15:45:12.516Z,2.47
2017-12-11T15:47:39.595Z,2.64
2017-12-11T15:50:05.757Z,3.04
2017-12-11T15:52:31.553Z,3.02
2017-12-11T15:54:57.382Z,3.35
2017-12-11T15:57:23.185Z,2.94
2017-12-11T15:59:49.605Z,2.95
2017-12-11T16:02:16.488Z,2.75
2017-12-11T16:04:42.959Z,3.17
2017-12-11T16:07:09.880Z,2.73
2017-12-11T16:09:38.001Z,2.29
2017-12-11T16:12:07.277Z,2.60
2017-12-11T16:14:35.450Z,2.97
2017-12-11T16:17:02.111Z,2.88
2017-12-11T16:19:32.404Z,2.98
2017-12-11T16:22:00.390Z,3.06
2017-12-11T16:24:29.033Z,2.85
2017-12-11T16:26:56.036Z,2.68
2017-12-11T16:29:23.940Z,2.44
2017-12-11T16:31:51.358Z,2.83
2017-12-11T16:34:19.223Z,2.84
2017-12-11T16:36:45.064Z,2.97
2017-12-11T16:39:11.023Z,2.70
2017-12-11T16:41:37.523Z,2.42
2017-12-11T16:44:03.372Z,2.65
2017-12-11T16:46:29.748Z,2.72
2017-12-11T16:48:55.551Z,2.99
2017-12-11T16:51:22.466Z,2.60
2017-12-11T16:53:48.277Z,2.54
2017-12-11T16:56:15.947Z,2.59
2017-12-11T16:58:41.783Z,2.43
2017-12-11T17:01:08.857Z,2.41
2017-12-11T17:03:34.731Z,2.36
2017-12-11T17:06:01.010Z,2.40
2017-12-11T17:08:26.804Z,2.21
2017-12-11T17:10:53.698Z,2.36
2017-12-11T17:13:19.686Z,2.18
2017-12-11T17:15:46.315Z,2.10
2017-12-11T17:18:12.102Z,2.29
2017-12-11T17:20:38.163Z,2.09
2017-12-11T17:23:03.966Z,2.20
2017-12-11T17:25:30.655Z,2.43
2017-12-11T17:27:56.470Z,2.26
2017-12-11T17:30:23.307Z,2.43
2017-12-11T17:32:49.307Z,2.46
2017-12-11T17:35:15.865Z,2.27
2017-12-11T17:37:41.715Z,2.69
2017-12-11T17:40:07.543Z,2.60
2017-12-11T17:42:33.384Z,2.69
2017-12-11T17:44:59.178Z,2.55
2017-12-11T17:47:26.067Z,2.46
2017-12-11T17:49:51.863Z,2.24
2017-12-11T17:52:17.656Z,2.78
2017-12-11T17:54:43.544Z,2.97
2017-12-11T17:57:09.372Z,2.56
2017-12-11T17:59:35.167Z,2.68
2017-12-11T18:02:01.968Z,2.89
2017-12-11T18:04:27.769Z,3.07
2017-12-11T18:06:54.156Z,2.91
2017-12-11T18:09:20.154Z,2.79
2017-12-11T18:11:45.949Z,2.86
2017-12-11T18:14:11.779Z,2.97
2017-12-11T18:16:37.790Z,2.88
2017-12-11T18:19:03.585Z,2.71
2017-12-11T18:21:29.864Z,2.76
2017-12-11T18:23:56.393Z,2.48
2017-12-11T18:26:25.038Z,2.73
2017-12-11T18:28:51.807Z,2.60
2017-12-11T18:31:17.859Z,2.91
2017-12-11T18:33:44.449Z,3.08
2017-12-11T18:36:11.209Z,2.81
2017-12-11T18:38:37.007Z,2.67
2017-12-11T18:41:03.671Z,2.50
2017-12-11T18:43:29.499Z,2.22
2017-12-11T18:45:55.577Z,2.37
2017-12-11T18:48:21.380Z,2.48
2017-12-11T18:50:47.168Z,2.47
2017-12-11T18:53:14.259Z,2.28
2017-12-11T18:55:40.533Z,2.46
2017-12-11T18:58:06.668Z,2.64
2017-12-11T19:00:32.688Z,2.56
2017-12-11T19:02:59.560Z,2.59
2017-12-11T19:05:25.379Z,2.56
2017-12-11T19:07:52.082Z,2.64
2017-12-11T19:10:18.181Z,2.69
2017-12-11T19:12:44.058Z,2.79
2017-12-11T19:15:09.886Z,2.63
2017-12-11T19:17:35.706Z,2.66
2017-12-11T19:20:04.562Z,2.62
2017-12-11T19:22:30.396Z,2.57
2017-12-11T19:24:57.259Z,2.33
2017-12-11T19:27:23.108Z,2.53
2017-12-11T19:29:48.929Z,2.29
2017-12-11T19:32:15.018Z,2.69
2017-12-11T19:34:41.493Z,2.67
2017-12-11T19:37:07.367Z,2.58
2017-12-11T19:39:34.937Z,2.41
2017-12-11T19:42:00.930Z,2.76
2017-12-11T19:44:26.745Z,2.29
2017-12-11T19:46:55.608Z,2.27
2017-12-11T19:49:22.240Z,2.44
2017-12-11T19:51:48.213Z,2.25
2017-12-11T19:54:15.743Z,2.53
2017-12-11T19:56:41.792Z,2.19
2017-12-11T19:59:07.596Z,2.64
2017-12-11T20:01:33.560Z,2.53
2017-12-11T20:03:59.432Z,2.72
2017-12-11T20:06:25.274Z,2.79
2017-12-11T20:08:53.128Z,2.51
2017-12-11T20:11:18.920Z,2.70
2017-12-11T20:13:45.059Z,2.19
2017-12-11T20:16:10.863Z,2.90
2017-12-11T20:18:36.649Z,2.90
2017-12-11T20:21:03.331Z,2.47
2017-12-11T20:23:29.128Z,2.14
2017-12-11T20:25:54.913Z,2.22
2017-12-11T20:28:21.305Z,2.50
2017-12-11T20:30:48.119Z,2.65
2017-12-11T20:33:13.924Z,2.82
2017-12-11T20:35:40.398Z,2.64
2017-12-11T20:38:06.183Z,2.66
2017-12-11T20:40:32.026Z,2.78
2017-12-11T20:42:57.879Z,2.48
2017-12-11T20:45:23.725Z,2.07
2017-12-11T20:47:49.539Z,2.98
2017-12-11T20:50:16.211Z,2.77
2017-12-11T20:52:43.015Z,2.29
2017-12-11T20:55:09.599Z,2.12
2017-12-11T20:57:35.729Z,2.56
2017-12-11T21:00:01.561Z,2.99
2017-12-11T21:02:28.771Z,2.48
2017-12-11T21:04:55.730Z,2.53
2017-12-11T21:07:22.108Z,2.65
2017-12-11T21:09:48.581Z,2.50
2017-12-11T21:12:14.395Z,2.90
2017-12-11T21:14:40.234Z,2.49
2017-12-11T21:17:06.064Z,2.28
2017-12-11T21:19:31.864Z,2.20
2017-12-11T21:21:57.695Z,2.26
2017-12-11T21:24:23.502Z,2.15
2017-12-11T21:26:50.227Z,2.58
2017-12-11T21:29:17.076Z,2.52
2017-12-11T21:31:42.868Z,2.61
2017-12-11T21:34:08.681Z,2.45
2017-12-11T21:36:35.619Z,2.41
2017-12-11T21:39:03.542Z,2.83
2017-12-11T21:41:29.426Z,2.80
2017-12-11T21:43:55.987Z,2.55
2017-12-11T21:46:22.072Z,2.49
2017-12-11T21:48:48.790Z,2.86
2017-12-11T21:51:14.994Z,2.83
2017-12-11T21:53:41.842Z,2.89
2017-12-11T21:56:08.273Z,2.38
2017-12-11T21:58:34.697Z,2.28
2017-12-11T22:01:03.645Z,2.53
2017-12-11T22:03:29.634Z,3.11
2017-12-11T22:05:56.975Z,2.78
2017-12-11T22:08:23.722Z,2.87
2017-12-11T22:10:49.526Z,2.68
2017-12-11T22:13:15.662Z,2.57
2017-12-11T22:15:42.335Z,2.50
2017-12-11T22:18:09.962Z,2.68
2017-12-11T22:20:35.789Z,2.59
2017-12-11T22:23:03.126Z,2.55
2017-12-11T22:25:29.781Z,2.46
2017-12-11T22:27:55.884Z,2.45
2017-12-11T22:30:22.632Z,2.64
2017-12-11T22:32:48.449Z,2.53
2017-12-11T22:35:14.492Z,2.59
2017-12-11T22:37:40.652Z,3.00
2017-12-11T22:40:06.819Z,2.53
2017-12-11T22:42:33.402Z,2.68
2017-12-11T22:45:00.878Z,2.75
2017-12-11T22:47:26.916Z,2.70
2017-12-11T22:49:53.572Z,2.66
2017-12-11T22:52:19.455Z,3.05
2017-12-11T22:54:45.258Z,2.75
2017-12-11T22:57:12.049Z,2.38
2017-12-11T22:59:37.835Z,2.43
2017-12-11T23:02:03.850Z,2.45
2017-12-11T23:04:29.646Z,2.23
2017-12-11T23:06:55.495Z,2.09
2017-12-11T23:09:21.303Z,2.50
2017-12-11T23:11:47.070Z,2.65
2017-12-11T23:14:12.885Z,2.45
2017-12-11T23:16:38.666Z,2.36
2017-12-11T23:19:04.438Z,2.31
2017-12-11T23:21:30.250Z,2.52
2017-12-11T23:23:56.030Z,2.48
2017-12-11T23:26:21.804Z,2.16
2017-12-11T23:28:47.609Z,2.79
2017-12-11T23:31:13.710Z,2.65
2017-12-11T23:33:39.490Z,2.73
2017-12-11T23:36:05.274Z,2.43
2017-12-11T23:38:31.070Z,2.44
2017-12-11T23:40:56.870Z,2.53
2017-12-11T23:43:22.650Z,2.31
2017-12-11T23:45:48.451Z,2.38
2017-12-11T23:48:14.232Z,2.91
2017-12-11T23:50:40.007Z,2.74
2017-12-11T23:53:06.073Z,2.86
2017-12-11T23:55:31.847Z,2.80
2017-12-11T23:57:57.616Z,2.62
